Hatteras, North Carolina
Current Conditions -  °F | °C
As of 4:51 AM on Friday 19 Dec 2014 (Local Time) from KHSE Reporting Station
Broken Clouds Broken Clouds  
Wind Chill: 39°   Ceiling: 7000
Heat Index: 42°   Visibility: 10mi
Dew Point: 39°   Wind: 5mph
Humidity: 89%   Direction: 320°NW
Pressure: 30.08"   Gusts: NA
Location:  35.22°N, 75.69°W
Report Text: KHSE 190951Z AUTO 32004KT 10SM BKN070 06/04 A3008 RMK AO2 SLP187 T00560039 TSNO
Loading
Personal Weather Stations






























Interactive Weather Map New forecast layout! Learn more

10-Day Weather Forecast

Advertisements
Track Severe Weather on mobile